Terminal Aerodrome Forecast
Issued by NWS

Current Version | Previous Version | Graphics & Text | Print | Product List | Glossary Off
Versions: 1 2 3 4 5 6 7 8 9 10 11 12 13 14 15 16 17 18 19 20 21 22 23

000
FTUS41 KPBZ 281100
TAFMGW
TAF
KMGW 281131Z 2812/2912 34007KT P6SM SCT025 BKN050
     FM281800 30008KT P6SM SCT035
     FM290300 32003KT P6SM SKC=

USA.gov is the U.S. government's official web portal to all federal, state and local government web resources and services.